Lancaster, TX (75134)

10:06 AM CST on February 13, 2016 (GMT -0600)
Cedar Valley College Environmental Learning Area | | Change Station
CLOSE
Current Station
Personal Weather Station
Location: Lancaster, TX
Elevation: 581 ft
Nearby Weather Stations
Active Advisory: Flood Warning

Elev 581 ft 32.62 °N, 96.76 °W | Updated 1 minute ago

Clear
Clear
53.1 °F
Feels Like 53.1 °F
N
3.0
Wind Variable Wind from SSE
Gusts 5.0 mph

Today
High -- | Low -- °F
--% Chance of Precip.
Yesterday
High -- | Low -- °F
Precip. -- in
Pressure 30.42 in
Visibility 10.0 miles
Clouds Clear
Dew Point 41 °F
Humidity 63%
Rainfall 0.00 in
Snow Depth Not available.
7:12 AM 6:10 PM
Waxing Crescent, 32% visible
METAR KLNC 131555Z AUTO 11010KT 10SM CLR 10/00 A3042 RMK AO2 T01010003
Pressure 30.42 in
Visibility 10.0 miles
Clouds Clear
Dew Point 41 °F
Humidity 63%
Rainfall 0.00 in
Snow Depth Not available.
7:12 AM 6:10 PM
Waxing Crescent, 32% visible
METAR KLNC 131555Z AUTO 11010KT 10SM CLR 10/00 A3042 RMK AO2 T01010003

10-Day Weather Forecast

Almanac

Astronomy

Feb. 13, 2016 Rise Set
Actual Time
Civil Twilight
Nautical Twilight
Astronomical Twilight
Moon
Length of Visible Light
Length of Day
Tomorrow will be .
, % of the Moon is Illuminated

Today's Extremes

State Highs State Lows

Community

WunderPhotos

Upload Photos

1,892,595 photos uploaded!

WunderBlog® & News

Nearby

Air Quality

  Air Quality AQ Index Pollutant
Not available.

Snow Depth

Station Depth Elevation

Earthquake Activity

City Distance Mag. Time & Date
Minimum magnitude displayed is 2.5.

Coastal Water Temperatures

Place Temperature

Stations

Nearby Weather Stations

Station Location Temp. Windchill Dew Point Humidity Wind Precip. Elev Updated Type
                   

Watches & Warnings

Flood Warning
Issued: 8:10 AM CST Feb. 13, 2016 – National Weather Service

The Flood Warning continues for
the Elm Fork Trinity River near Carrollton.
* At 0715 am Saturday the stage was 8.36 feet.
* Flood stage is 8 feet.
* Minor flooding is occurring and minor flooding is forecast.
* Forecast... the river will remain near 8 feet for the next several
days.
* At 8 feet, minor flooding will occur downstream from the gauge.


Lat... Lon 3300 9700 3287 9699 3287 9687 3300 9688